sensor_id;sensor_type;location;lat;lon;timestamp;temperature;humidity
75010;DHT22;63564;46.840;18.336;2022-09-21T00:01:36;9.68;84.66
75010;DHT22;63564;46.840;18.336;2022-09-21T00:04:36;9.52;85.40
75010;DHT22;63564;46.840;18.336;2022-09-21T00:07:37;9.44;85.74
75010;DHT22;63564;46.840;18.336;2022-09-21T00:10:37;9.41;86.38
75010;DHT22;63564;46.840;18.336;2022-09-21T00:13:38;9.39;86.42
75010;DHT22;63564;46.840;18.336;2022-09-21T00:16:42;9.35;86.10
75010;DHT22;63564;46.840;18.336;2022-09-21T00:19:42;9.31;87.09
75010;DHT22;63564;46.840;18.336;2022-09-21T00:22:42;9.24;87.12
75010;DHT22;63564;46.840;18.336;2022-09-21T00:25:43;9.10;88.15
75010;DHT22;63564;46.840;18.336;2022-09-21T00:28:44;9.01;88.33
75010;DHT22;63564;46.840;18.336;2022-09-21T00:31:45;9.06;87.57
75010;DHT22;63564;46.840;18.336;2022-09-21T00:34:45;9.03;87.96
75010;DHT22;63564;46.840;18.336;2022-09-21T00:37:45;9.06;87.51
75010;DHT22;63564;46.840;18.336;2022-09-21T00:40:46;9.09;88.18
75010;DHT22;63564;46.840;18.336;2022-09-21T00:43:49;8.99;88.73
75010;DHT22;63564;46.840;18.336;2022-09-21T00:47:13;9.03;88.46
75010;DHT22;63564;46.840;18.336;2022-09-21T00:50:17;9.04;88.42
75010;DHT22;63564;46.840;18.336;2022-09-21T00:53:18;9.10;87.71
75010;DHT22;63564;46.840;18.336;2022-09-21T00:56:19;9.03;87.76
75010;DHT22;63564;46.840;18.336;2022-09-21T00:59:19;9.06;87.75
75010;DHT22;63564;46.840;18.336;2022-09-21T01:02:20;9.10;87.98
75010;DHT22;63564;46.840;18.336;2022-09-21T01:05:21;9.06;87.93
75010;DHT22;63564;46.840;18.336;2022-09-21T01:08:22;8.97;88.62
75010;DHT22;63564;46.840;18.336;2022-09-21T01:17:51;9.09;87.83
75010;DHT22;63564;46.840;18.336;2022-09-21T01:21:04;9.03;88.06
75010;DHT22;63564;46.840;18.336;2022-09-21T01:24:57;9.09;86.97
75010;DHT22;63564;46.840;18.336;2022-09-21T01:28:28;9.04;87.88
75010;DHT22;63564;46.840;18.336;2022-09-21T01:31:41;9.01;87.77
75010;DHT22;63564;46.840;18.336;2022-09-21T01:38:12;8.97;87.44
75010;DHT22;63564;46.840;18.336;2022-09-21T01:41:17;9.10;85.59
75010;DHT22;63564;46.840;18.336;2022-09-21T01:44:21;9.00;86.90
75010;DHT22;63564;46.840;18.336;2022-09-21T01:47:22;8.93;87.84
75010;DHT22;63564;46.840;18.336;2022-09-21T01:50:25;8.84;88.27
75010;DHT22;63564;46.840;18.336;2022-09-21T01:56:51;8.79;87.84
75010;DHT22;63564;46.840;18.336;2022-09-21T01:59:55;8.69;88.21
75010;DHT22;63564;46.840;18.336;2022-09-21T02:03:03;8.68;87.92
75010;DHT22;63564;46.840;18.336;2022-09-21T02:06:05;8.61;88.57
75010;DHT22;63564;46.840;18.336;2022-09-21T02:09:06;8.68;88.05
75010;DHT22;63564;46.840;18.336;2022-09-21T02:12:07;8.69;88.09
75010;DHT22;63564;46.840;18.336;2022-09-21T02:15:09;8.63;87.78
75010;DHT22;63564;46.840;18.336;2022-09-21T02:18:39;8.58;88.76
75010;DHT22;63564;46.840;18.336;2022-09-21T02:22:10;8.54;88.75
75010;DHT22;63564;46.840;18.336;2022-09-21T02:25:18;8.52;89.28
75010;DHT22;63564;46.840;18.336;2022-09-21T02:28:37;8.51;88.65
75010;DHT22;63564;46.840;18.336;2022-09-21T02:32:00;8.51;89.32
75010;DHT22;63564;46.840;18.336;2022-09-21T02:35:12;8.46;89.75
75010;DHT22;63564;46.840;18.336;2022-09-21T02:38:27;8.48;88.83
75010;DHT22;63564;46.840;18.336;2022-09-21T02:41:45;8.56;88.97
75010;DHT22;63564;46.840;18.336;2022-09-21T02:44:53;8.51;89.24
75010;DHT22;63564;46.840;18.336;2022-09-21T02:51:14;8.34;89.61
75010;DHT22;63564;46.840;18.336;2022-09-21T02:54:19;8.44;88.41
75010;DHT22;63564;46.840;18.336;2022-09-21T02:57:22;8.46;87.87
75010;DHT22;63564;46.840;18.336;2022-09-21T03:00:22;8.35;89.36
75010;DHT22;63564;46.840;18.336;2022-09-21T03:03:24;8.30;89.09
75010;DHT22;63564;46.840;18.336;2022-09-21T03:06:25;8.18;90.24
75010;DHT22;63564;46.840;18.336;2022-09-21T03:09:25;8.08;90.47
75010;DHT22;63564;46.840;18.336;2022-09-21T03:12:26;8.06;91.36
75010;DHT22;63564;46.840;18.336;2022-09-21T03:15:26;8.00;91.28
75010;DHT22;63564;46.840;18.336;2022-09-21T03:18:27;7.96;91.10
75010;DHT22;63564;46.840;18.336;2022-09-21T03:21:28;7.90;91.44
75010;DHT22;63564;46.840;18.336;2022-09-21T03:24:28;7.79;91.97
75010;DHT22;63564;46.840;18.336;2022-09-21T03:27:47;7.69;92.44
75010;DHT22;63564;46.840;18.336;2022-09-21T03:30:48;7.79;90.89
75010;DHT22;63564;46.840;18.336;2022-09-21T03:33:49;7.83;89.87
75010;DHT22;63564;46.840;18.336;2022-09-21T03:36:49;7.77;90.51
75010;DHT22;63564;46.840;18.336;2022-09-21T03:39:50;7.69;91.12
75010;DHT22;63564;46.840;18.336;2022-09-21T03:42:50;7.72;91.03
75010;DHT22;63564;46.840;18.336;2022-09-21T03:45:51;7.56;91.82
75010;DHT22;63564;46.840;18.336;2022-09-21T03:48:52;7.34;92.83
75010;DHT22;63564;46.840;18.336;2022-09-21T03:51:52;7.20;92.81
75010;DHT22;63564;46.840;18.336;2022-09-21T03:54:54;7.38;91.59
75010;DHT22;63564;46.840;18.336;2022-09-21T03:57:54;7.20;93.06
75010;DHT22;63564;46.840;18.336;2022-09-21T04:01:00;6.91;93.80
75010;DHT22;63564;46.840;18.336;2022-09-21T04:04:00;6.82;94.12
75010;DHT22;63564;46.840;18.336;2022-09-21T04:07:01;6.76;94.60
75010;DHT22;63564;46.840;18.336;2022-09-21T04:10:03;6.75;94.54
75010;DHT22;63564;46.840;18.336;2022-09-21T04:13:05;6.79;94.93
75010;DHT22;63564;46.840;18.336;2022-09-21T04:16:05;6.68;94.83
75010;DHT22;63564;46.840;18.336;2022-09-21T04:19:06;6.80;95.06
75010;DHT22;63564;46.840;18.336;2022-09-21T04:22:07;6.96;94.38
75010;DHT22;63564;46.840;18.336;2022-09-21T04:25:09;6.76;93.95
75010;DHT22;63564;46.840;18.336;2022-09-21T04:28:09;6.80;94.33
75010;DHT22;63564;46.840;18.336;2022-09-21T04:31:10;6.73;94.41
75010;DHT22;63564;46.840;18.336;2022-09-21T04:34:11;6.84;94.74
75010;DHT22;63564;46.840;18.336;2022-09-21T04:37:12;6.96;94.36
75010;DHT22;63564;46.840;18.336;2022-09-21T04:40:12;7.05;93.07
75010;DHT22;63564;46.840;18.336;2022-09-21T04:43:13;7.22;91.83
75010;DHT22;63564;46.840;18.336;2022-09-21T04:46:15;7.25;91.29
75010;DHT22;63564;46.840;18.336;2022-09-21T04:49:16;7.30;91.15
75010;DHT22;63564;46.840;18.336;2022-09-21T04:52:16;7.24;91.65
75010;DHT22;63564;46.840;18.336;2022-09-21T04:55:16;7.14;92.64
75010;DHT22;63564;46.840;18.336;2022-09-21T04:58:17;6.99;93.87
75010;DHT22;63564;46.840;18.336;2022-09-21T05:01:17;6.97;93.59
75010;DHT22;63564;46.840;18.336;2022-09-21T05:04:17;7.07;93.73
75010;DHT22;63564;46.840;18.336;2022-09-21T05:07:18;7.05;93.99
75010;DHT22;63564;46.840;18.336;2022-09-21T05:10:18;7.07;93.75
75010;DHT22;63564;46.840;18.336;2022-09-21T05:13:18;7.28;92.76
75010;DHT22;63564;46.840;18.336;2022-09-21T05:16:19;7.45;91.83
75010;DHT22;63564;46.840;18.336;2022-09-21T05:19:19;7.27;92.91
75010;DHT22;63564;46.840;18.336;2022-09-21T05:22:20;7.28;93.63
75010;DHT22;63564;46.840;18.336;2022-09-21T05:25:20;7.34;93.90
75010;DHT22;63564;46.840;18.336;2022-09-21T05:28:21;7.44;92.43
75010;DHT22;63564;46.840;18.336;2022-09-21T05:35:55;7.65;92.83
75010;DHT22;63564;46.840;18.336;2022-09-21T05:38:19;7.97;91.11
75010;DHT22;63564;46.840;18.336;2022-09-21T05:41:19;8.01;90.95
75010;DHT22;63564;46.840;18.336;2022-09-21T05:44:20;7.86;91.88
75010;DHT22;63564;46.840;18.336;2022-09-21T05:50:57;7.85;91.88
75010;DHT22;63564;46.840;18.336;2022-09-21T05:57:25;8.31;92.41
75010;DHT22;63564;46.840;18.336;2022-09-21T06:00:42;8.38;92.62
75010;DHT22;63564;46.840;18.336;2022-09-21T06:03:47;8.96;91.10
75010;DHT22;63564;46.840;18.336;2022-09-21T06:06:49;8.99;89.38
75010;DHT22;63564;46.840;18.336;2022-09-21T06:09:50;9.39;88.74
75010;DHT22;63564;46.840;18.336;2022-09-21T06:12:50;9.93;85.17
75010;DHT22;63564;46.840;18.336;2022-09-21T06:15:51;10.13;85.75
75010;DHT22;63564;46.840;18.336;2022-09-21T06:18:51;10.36;83.44
75010;DHT22;63564;46.840;18.336;2022-09-21T06:21:52;10.47;82.82
75010;DHT22;63564;46.840;18.336;2022-09-21T06:24:52;10.43;81.88
75010;DHT22;63564;46.840;18.336;2022-09-21T06:27:52;10.50;81.69
75010;DHT22;63564;46.840;18.336;2022-09-21T06:30:54;10.78;80.78
75010;DHT22;63564;46.840;18.336;2022-09-21T06:33:55;10.98;80.29
75010;DHT22;63564;46.840;18.336;2022-09-21T06:36:56;10.99;79.66
75010;DHT22;63564;46.840;18.336;2022-09-21T06:39:56;10.89;82.42
75010;DHT22;63564;46.840;18.336;2022-09-21T06:42:58;10.98;80.68
75010;DHT22;63564;46.840;18.336;2022-09-21T06:46:00;11.19;80.09
75010;DHT22;63564;46.840;18.336;2022-09-21T06:49:00;11.28;78.78
75010;DHT22;63564;46.840;18.336;2022-09-21T06:52:01;11.20;78.34
75010;DHT22;63564;46.840;18.336;2022-09-21T06:55:01;10.76;82.36
75010;DHT22;63564;46.840;18.336;2022-09-21T06:58:02;10.86;81.82
75010;DHT22;63564;46.840;18.336;2022-09-21T07:01:11;11.17;81.00
75010;DHT22;63564;46.840;18.336;2022-09-21T07:04:11;11.30;80.19
75010;DHT22;63564;46.840;18.336;2022-09-21T07:07:12;11.68;77.21
75010;DHT22;63564;46.840;18.336;2022-09-21T07:10:12;12.01;74.97
75010;DHT22;63564;46.840;18.336;2022-09-21T07:13:12;12.34;75.15
75010;DHT22;63564;46.840;18.336;2022-09-21T07:16:15;12.53;75.98
75010;DHT22;63564;46.840;18.336;2022-09-21T07:19:15;12.77;79.28
75010;DHT22;63564;46.840;18.336;2022-09-21T07:22:16;12.40;75.91
75010;DHT22;63564;46.840;18.336;2022-09-21T07:25:16;12.61;75.45
75010;DHT22;63564;46.840;18.336;2022-09-21T07:28:17;12.50;73.78
75010;DHT22;63564;46.840;18.336;2022-09-21T07:31:18;12.80;72.40
75010;DHT22;63564;46.840;18.336;2022-09-21T07:34:18;12.70;72.30
75010;DHT22;63564;46.840;18.336;2022-09-21T07:37:19;12.54;75.61
75010;DHT22;63564;46.840;18.336;2022-09-21T07:40:19;12.64;76.17
75010;DHT22;63564;46.840;18.336;2022-09-21T07:43:19;13.14;72.16
75010;DHT22;63564;46.840;18.336;2022-09-21T07:46:20;13.36;70.60
75010;DHT22;63564;46.840;18.336;2022-09-21T07:49:20;13.12;72.06
75010;DHT22;63564;46.840;18.336;2022-09-21T07:52:21;12.91;72.99
75010;DHT22;63564;46.840;18.336;2022-09-21T07:55:22;13.01;72.71
75010;DHT22;63564;46.840;18.336;2022-09-21T07:58:22;13.50;72.57
75010;DHT22;63564;46.840;18.336;2022-09-21T08:01:41;13.44;70.73
75010;DHT22;63564;46.840;18.336;2022-09-21T08:04:41;13.53;70.23
75010;DHT22;63564;46.840;18.336;2022-09-21T08:07:42;13.77;69.07
75010;DHT22;63564;46.840;18.336;2022-09-21T08:10:42;13.84;69.15
75010;DHT22;63564;46.840;18.336;2022-09-21T08:13:43;14.05;66.59
75010;DHT22;63564;46.840;18.336;2022-09-21T08:16:47;13.85;69.31
75010;DHT22;63564;46.840;18.336;2022-09-21T08:19:48;14.14;68.45
75010;DHT22;63564;46.840;18.336;2022-09-21T08:22:48;14.07;67.12
75010;DHT22;63564;46.840;18.336;2022-09-21T08:25:49;14.45;66.03
75010;DHT22;63564;46.840;18.336;2022-09-21T08:28:51;14.28;66.24
75010;DHT22;63564;46.840;18.336;2022-09-21T08:31:52;14.29;67.75
75010;DHT22;63564;46.840;18.336;2022-09-21T08:34:52;14.48;66.44
75010;DHT22;63564;46.840;18.336;2022-09-21T08:37:53;14.46;66.72
75010;DHT22;63564;46.840;18.336;2022-09-21T08:40:54;14.56;68.15
75010;DHT22;63564;46.840;18.336;2022-09-21T08:44:18;14.65;67.19
75010;DHT22;63564;46.840;18.336;2022-09-21T08:47:34;14.66;66.91
75010;DHT22;63564;46.840;18.336;2022-09-21T08:50:43;14.43;67.37
75010;DHT22;63564;46.840;18.336;2022-09-21T08:53:47;14.83;63.68
75010;DHT22;63564;46.840;18.336;2022-09-21T08:56:49;14.79;65.94
75010;DHT22;63564;46.840;18.336;2022-09-21T08:59:50;14.91;65.82
75010;DHT22;63564;46.840;18.336;2022-09-21T09:13:26;15.00;65.87
75010;DHT22;63564;46.840;18.336;2022-09-21T09:17:07;15.12;62.69
75010;DHT22;63564;46.840;18.336;2022-09-21T09:20:14;15.03;65.61
75010;DHT22;63564;46.840;18.336;2022-09-21T09:23:21;14.98;63.26
75010;DHT22;63564;46.840;18.336;2022-09-21T09:26:31;15.12;64.79
75010;DHT22;63564;46.840;18.336;2022-09-21T09:29:43;15.52;61.48
75010;DHT22;63564;46.840;18.336;2022-09-21T09:33:06;15.65;59.93
75010;DHT22;63564;46.840;18.336;2022-09-21T09:36:12;15.78;61.09
75010;DHT22;63564;46.840;18.336;2022-09-21T09:39:14;15.83;60.38
75010;DHT22;63564;46.840;18.336;2022-09-21T09:51:53;15.58;63.07
75010;DHT22;63564;46.840;18.336;2022-09-21T09:54:53;15.85;57.65
75010;DHT22;63564;46.840;18.336;2022-09-21T09:57:54;15.72;62.27
75010;DHT22;63564;46.840;18.336;2022-09-21T10:00:58;16.04;59.47
75010;DHT22;63564;46.840;18.336;2022-09-21T10:04:07;16.47;56.58
75010;DHT22;63564;46.840;18.336;2022-09-21T10:07:17;16.56;56.26
75010;DHT22;63564;46.840;18.336;2022-09-21T10:10:39;16.44;57.15
75010;DHT22;63564;46.840;18.336;2022-09-21T10:13:42;16.38;56.85
75010;DHT22;63564;46.840;18.336;2022-09-21T10:16:51;16.40;55.52
75010;DHT22;63564;46.840;18.336;2022-09-21T10:20:00;16.71;57.37
75010;DHT22;63564;46.840;18.336;2022-09-21T10:23:00;16.83;55.56
75010;DHT22;63564;46.840;18.336;2022-09-21T10:26:11;16.69;56.12
75010;DHT22;63564;46.840;18.336;2022-09-21T10:32:24;16.28;57.79
75010;DHT22;63564;46.840;18.336;2022-09-21T10:35:26;16.44;56.55
75010;DHT22;63564;46.840;18.336;2022-09-21T10:38:26;16.41;56.08
75010;DHT22;63564;46.840;18.336;2022-09-21T10:41:27;16.04;57.53
75010;DHT22;63564;46.840;18.336;2022-09-21T10:44:38;16.40;56.20
75010;DHT22;63564;46.840;18.336;2022-09-21T10:47:48;17.09;53.50
75010;DHT22;63564;46.840;18.336;2022-09-21T10:50:51;16.64;56.83
75010;DHT22;63564;46.840;18.336;2022-09-21T10:53:52;16.76;55.10
75010;DHT22;63564;46.840;18.336;2022-09-21T10:56:56;17.10;53.58
75010;DHT22;63564;46.840;18.336;2022-09-21T10:59:57;17.40;51.79
75010;DHT22;63564;46.840;18.336;2022-09-21T11:03:00;17.49;53.74
75010;DHT22;63564;46.840;18.336;2022-09-21T11:06:15;17.02;52.32
75010;DHT22;63564;46.840;18.336;2022-09-21T11:09:23;16.68;53.96
75010;DHT22;63564;46.840;18.336;2022-09-21T11:12:40;17.00;51.92
75010;DHT22;63564;46.840;18.336;2022-09-21T11:16:00;17.45;52.03
75010;DHT22;63564;46.840;18.336;2022-09-21T11:19:12;17.59;51.24
75010;DHT22;63564;46.840;18.336;2022-09-21T11:29:36;17.06;53.13
75010;DHT22;63564;46.840;18.336;2022-09-21T11:33:20;16.90;53.09
75010;DHT22;63564;46.840;18.336;2022-09-21T11:40:24;16.32;55.93
75010;DHT22;63564;46.840;18.336;2022-09-21T11:53:30;17.40;50.70
75010;DHT22;63564;46.840;18.336;2022-09-21T11:56:57;17.16;51.34
75010;DHT22;63564;46.840;18.336;2022-09-21T12:10:07;17.42;52.63
75010;DHT22;63564;46.840;18.336;2022-09-21T12:17:04;17.27;49.92
75010;DHT22;63564;46.840;18.336;2022-09-21T12:20:13;17.00;47.61
75010;DHT22;63564;46.840;18.336;2022-09-21T12:23:28;16.47;50.23
75010;DHT22;63564;46.840;18.336;2022-09-21T12:26:41;16.75;51.28
75010;DHT22;63564;46.840;18.336;2022-09-21T12:29:44;17.37;49.30
75010;DHT22;63564;46.840;18.336;2022-09-21T12:36:17;17.32;48.77
75010;DHT22;63564;46.840;18.336;2022-09-21T12:39:28;16.90;50.29
75010;DHT22;63564;46.840;18.336;2022-09-21T12:42:48;17.03;48.67
75010;DHT22;63564;46.840;18.336;2022-09-21T12:45:54;17.81;47.62
75010;DHT22;63564;46.840;18.336;2022-09-21T12:48:58;18.16;46.25
75010;DHT22;63564;46.840;18.336;2022-09-21T12:52:01;18.45;45.60
75010;DHT22;63564;46.840;18.336;2022-09-21T13:02:36;17.58;47.21
75010;DHT22;63564;46.840;18.336;2022-09-21T13:06:00;18.06;47.76
75010;DHT22;63564;46.840;18.336;2022-09-21T13:09:10;18.48;47.14
75010;DHT22;63564;46.840;18.336;2022-09-21T13:12:18;18.92;45.85
75010;DHT22;63564;46.840;18.336;2022-09-21T13:15:25;17.86;45.54
75010;DHT22;63564;46.840;18.336;2022-09-21T13:18:32;18.24;46.06
75010;DHT22;63564;46.840;18.336;2022-09-21T13:21:34;18.81;43.46
75010;DHT22;63564;46.840;18.336;2022-09-21T13:24:35;19.51;39.95
75010;DHT22;63564;46.840;18.336;2022-09-21T13:37:34;19.45;42.89
75010;DHT22;63564;46.840;18.336;2022-09-21T13:40:35;19.33;44.26
75010;DHT22;63564;46.840;18.336;2022-09-21T13:46:52;19.77;41.73
75010;DHT22;63564;46.840;18.336;2022-09-21T13:49:53;20.34;39.17
75010;DHT22;63564;46.840;18.336;2022-09-21T13:52:57;21.45;37.39
75010;DHT22;63564;46.840;18.336;2022-09-21T13:56:04;21.96;36.84
75010;DHT22;63564;46.840;18.336;2022-09-21T13:59:20;20.32;41.15
75010;DHT22;63564;46.840;18.336;2022-09-21T14:02:27;21.94;38.96
75010;DHT22;63564;46.840;18.336;2022-09-21T14:05:41;21.08;38.61
75010;DHT22;63564;46.840;18.336;2022-09-21T14:08:54;20.11;37.98
75010;DHT22;63564;46.840;18.336;2022-09-21T14:12:00;19.61;40.88
75010;DHT22;63564;46.840;18.336;2022-09-21T14:18:33;18.78;42.78
75010;DHT22;63564;46.840;18.336;2022-09-21T14:21:34;18.17;44.14
75010;DHT22;63564;46.840;18.336;2022-09-21T14:25:25;17.86;46.90
75010;DHT22;63564;46.840;18.336;2022-09-21T14:28:37;17.54;47.85
75010;DHT22;63564;46.840;18.336;2022-09-21T14:31:38;17.55;43.89
75010;DHT22;63564;46.840;18.336;2022-09-21T14:34:40;17.61;43.73
75010;DHT22;63564;46.840;18.336;2022-09-21T14:37:47;17.75;45.28
75010;DHT22;63564;46.840;18.336;2022-09-21T14:40:55;17.85;47.00
75010;DHT22;63564;46.840;18.336;2022-09-21T14:43:56;17.38;44.95
75010;DHT22;63564;46.840;18.336;2022-09-21T14:47:32;16.84;44.77
75010;DHT22;63564;46.840;18.336;2022-09-21T14:50:44;16.71;46.30
75010;DHT22;63564;46.840;18.336;2022-09-21T15:00:45;16.54;46.87
75010;DHT22;63564;46.840;18.336;2022-09-21T15:04:07;16.25;49.10
75010;DHT22;63564;46.840;18.336;2022-09-21T15:07:33;16.31;47.62
75010;DHT22;63564;46.840;18.336;2022-09-21T15:11:26;16.07;50.23
75010;DHT22;63564;46.840;18.336;2022-09-21T15:14:35;16.17;47.68
75010;DHT22;63564;46.840;18.336;2022-09-21T15:17:50;16.18;49.09
75010;DHT22;63564;46.840;18.336;2022-09-21T15:20:58;16.13;50.11
75010;DHT22;63564;46.840;18.336;2022-09-21T15:24:32;16.13;49.84
75010;DHT22;63564;46.840;18.336;2022-09-21T15:27:31;16.08;49.54
75010;DHT22;63564;46.840;18.336;2022-09-21T15:30:41;16.13;50.16
75010;DHT22;63564;46.840;18.336;2022-09-21T15:33:45;16.11;50.67
75010;DHT22;63564;46.840;18.336;2022-09-21T15:36:47;16.20;50.74
75010;DHT22;63564;46.840;18.336;2022-09-21T15:40:02;16.08;50.76
75010;DHT22;63564;46.840;18.336;2022-09-21T15:46:06;15.90;52.17
75010;DHT22;63564;46.840;18.336;2022-09-21T15:49:13;15.85;52.71
75010;DHT22;63564;46.840;18.336;2022-09-21T15:52:36;15.63;53.90
75010;DHT22;63564;46.840;18.336;2022-09-21T15:55:39;15.59;53.05
75010;DHT22;63564;46.840;18.336;2022-09-21T15:58:40;15.63;53.20
75010;DHT22;63564;46.840;18.336;2022-09-21T16:01:44;15.52;54.23
75010;DHT22;63564;46.840;18.336;2022-09-21T16:04:48;15.25;56.61
75010;DHT22;63564;46.840;18.336;2022-09-21T16:07:49;15.35;54.75
75010;DHT22;63564;46.840;18.336;2022-09-21T16:11:32;15.34;54.21
75010;DHT22;63564;46.840;18.336;2022-09-21T16:14:46;15.27;54.73
75010;DHT22;63564;46.840;18.336;2022-09-21T16:18:00;15.18;53.09
75010;DHT22;63564;46.840;18.336;2022-09-21T16:21:19;15.11;53.25
75010;DHT22;63564;46.840;18.336;2022-09-21T16:24:21;15.00;53.79
75010;DHT22;63564;46.840;18.336;2022-09-21T16:27:24;14.84;54.24
75010;DHT22;63564;46.840;18.336;2022-09-21T16:36:49;14.65;55.51
75010;DHT22;63564;46.840;18.336;2022-09-21T16:39:51;14.50;56.21
75010;DHT22;63564;46.840;18.336;2022-09-21T16:42:54;14.25;58.56
75010;DHT22;63564;46.840;18.336;2022-09-21T16:45:54;14.12;58.68
75010;DHT22;63564;46.840;18.336;2022-09-21T16:48:55;13.92;60.85
75010;DHT22;63564;46.840;18.336;2022-09-21T16:51:55;13.63;62.12
75010;DHT22;63564;46.840;18.336;2022-09-21T16:54:56;13.59;61.79
75010;DHT22;63564;46.840;18.336;2022-09-21T16:57:57;13.27;63.66
75010;DHT22;63564;46.840;18.336;2022-09-21T17:00:59;13.19;63.64
75010;DHT22;63564;46.840;18.336;2022-09-21T17:04:00;13.04;64.53
75010;DHT22;63564;46.840;18.336;2022-09-21T17:07:00;13.05;65.97
75010;DHT22;63564;46.840;18.336;2022-09-21T17:10:10;12.88;65.66
75010;DHT22;63564;46.840;18.336;2022-09-21T17:13:12;12.80;65.81
75010;DHT22;63564;46.840;18.336;2022-09-21T17:16:16;12.71;65.79
75010;DHT22;63564;46.840;18.336;2022-09-21T17:19:18;12.71;66.00
75010;DHT22;63564;46.840;18.336;2022-09-21T17:22:19;12.64;66.35
75010;DHT22;63564;46.840;18.336;2022-09-21T17:25:19;12.60;66.46
75010;DHT22;63564;46.840;18.336;2022-09-21T17:28:23;12.59;65.49
75010;DHT22;63564;46.840;18.336;2022-09-21T17:31:25;12.53;67.39
75010;DHT22;63564;46.840;18.336;2022-09-21T17:34:28;12.47;67.57
75010;DHT22;63564;46.840;18.336;2022-09-21T17:37:34;12.37;67.75
75010;DHT22;63564;46.840;18.336;2022-09-21T17:40:37;12.25;68.78
75010;DHT22;63564;46.840;18.336;2022-09-21T17:43:43;12.18;68.47
75010;DHT22;63564;46.840;18.336;2022-09-21T17:46:51;12.15;69.23
75010;DHT22;63564;46.840;18.336;2022-09-21T17:49:56;12.12;70.27
75010;DHT22;63564;46.840;18.336;2022-09-21T17:52:58;12.13;68.94
75010;DHT22;63564;46.840;18.336;2022-09-21T17:59:35;12.43;66.67
75010;DHT22;63564;46.840;18.336;2022-09-21T18:02:36;12.47;66.99
75010;DHT22;63564;46.840;18.336;2022-09-21T18:05:37;12.50;66.58
75010;DHT22;63564;46.840;18.336;2022-09-21T18:08:38;12.54;66.44
75010;DHT22;63564;46.840;18.336;2022-09-21T18:18:45;12.28;68.35
75010;DHT22;63564;46.840;18.336;2022-09-21T18:21:51;12.28;69.05
75010;DHT22;63564;46.840;18.336;2022-09-21T18:24:56;12.28;67.01
75010;DHT22;63564;46.840;18.336;2022-09-21T18:28:00;12.32;66.75
75010;DHT22;63564;46.840;18.336;2022-09-21T18:38:16;12.32;66.64
75010;DHT22;63564;46.840;18.336;2022-09-21T18:41:31;12.22;66.61
75010;DHT22;63564;46.840;18.336;2022-09-21T18:44:39;12.18;66.79
75010;DHT22;63564;46.840;18.336;2022-09-21T18:51:35;12.02;67.29
75010;DHT22;63564;46.840;18.336;2022-09-21T18:54:39;12.02;67.48
75010;DHT22;63564;46.840;18.336;2022-09-21T18:57:40;12.02;67.42
75010;DHT22;63564;46.840;18.336;2022-09-21T19:00:41;11.92;68.55
75010;DHT22;63564;46.840;18.336;2022-09-21T19:03:42;11.79;69.61
75010;DHT22;63564;46.840;18.336;2022-09-21T19:22:53;10.83;74.98
75010;DHT22;63564;46.840;18.336;2022-09-21T19:26:15;10.67;76.39
75010;DHT22;63564;46.840;18.336;2022-09-21T19:29:25;10.60;76.38
75010;DHT22;63564;46.840;18.336;2022-09-21T19:36:08;10.55;76.30
75010;DHT22;63564;46.840;18.336;2022-09-21T19:39:10;10.48;76.82
75010;DHT22;63564;46.840;18.336;2022-09-21T19:42:19;10.31;77.23
75010;DHT22;63564;46.840;18.336;2022-09-21T19:48:44;10.13;77.94
75010;DHT22;63564;46.840;18.336;2022-09-21T19:51:47;10.10;78.51
75010;DHT22;63564;46.840;18.336;2022-09-21T19:54:48;10.10;77.92
75010;DHT22;63564;46.840;18.336;2022-09-21T19:58:08;10.03;78.03
75010;DHT22;63564;46.840;18.336;2022-09-21T20:01:27;10.10;77.30
75010;DHT22;63564;46.840;18.336;2022-09-21T20:04:35;10.13;77.63
75010;DHT22;63564;46.840;18.336;2022-09-21T20:11:12;9.89;78.56
75010;DHT22;63564;46.840;18.336;2022-09-21T20:14:24;10.05;78.35
75010;DHT22;63564;46.840;18.336;2022-09-21T20:17:42;10.02;77.57
75010;DHT22;63564;46.840;18.336;2022-09-21T20:20:44;9.86;79.37
75010;DHT22;63564;46.840;18.336;2022-09-21T20:23:44;9.83;78.91
75010;DHT22;63564;46.840;18.336;2022-09-21T20:26:49;9.76;78.67
75010;DHT22;63564;46.840;18.336;2022-09-21T20:29:50;9.86;78.11
75010;DHT22;63564;46.840;18.336;2022-09-21T20:32:55;9.76;79.11
75010;DHT22;63564;46.840;18.336;2022-09-21T20:35:56;9.95;77.99
75010;DHT22;63564;46.840;18.336;2022-09-21T20:38:57;10.13;76.91
75010;DHT22;63564;46.840;18.336;2022-09-21T20:41:58;10.07;78.62
75010;DHT22;63564;46.840;18.336;2022-09-21T20:44:59;10.10;78.40
75010;DHT22;63564;46.840;18.336;2022-09-21T20:47:59;10.03;78.36
75010;DHT22;63564;46.840;18.336;2022-09-21T20:51:12;10.06;78.75
75010;DHT22;63564;46.840;18.336;2022-09-21T20:54:12;10.06;79.24
75010;DHT22;63564;46.840;18.336;2022-09-21T20:57:12;10.02;79.28
75010;DHT22;63564;46.840;18.336;2022-09-21T21:00:14;9.90;80.49
75010;DHT22;63564;46.840;18.336;2022-09-21T21:03:15;9.93;79.39
75010;DHT22;63564;46.840;18.336;2022-09-21T21:06:16;9.81;79.77
75010;DHT22;63564;46.840;18.336;2022-09-21T21:09:17;9.76;80.66
75010;DHT22;63564;46.840;18.336;2022-09-21T21:12:18;9.75;80.45
75010;DHT22;63564;46.840;18.336;2022-09-21T21:15:18;9.76;80.81
75010;DHT22;63564;46.840;18.336;2022-09-21T21:18:19;9.74;80.58
75010;DHT22;63564;46.840;18.336;2022-09-21T21:21:19;9.69;81.61
75010;DHT22;63564;46.840;18.336;2022-09-21T21:24:19;9.75;80.28
75010;DHT22;63564;46.840;18.336;2022-09-21T21:27:38;9.62;81.93
75010;DHT22;63564;46.840;18.336;2022-09-21T21:30:39;9.51;83.81
75010;DHT22;63564;46.840;18.336;2022-09-21T21:33:39;9.42;83.21
75010;DHT22;63564;46.840;18.336;2022-09-21T21:36:40;9.27;84.20
75010;DHT22;63564;46.840;18.336;2022-09-21T21:39:42;9.19;83.71
75010;DHT22;63564;46.840;18.336;2022-09-21T21:42:42;9.10;83.94
75010;DHT22;63564;46.840;18.336;2022-09-21T21:45:50;9.00;84.56
75010;DHT22;63564;46.840;18.336;2022-09-21T21:48:51;8.99;85.11
75010;DHT22;63564;46.840;18.336;2022-09-21T21:51:52;8.96;85.70
75010;DHT22;63564;46.840;18.336;2022-09-21T21:54:52;8.93;84.66
75010;DHT22;63564;46.840;18.336;2022-09-21T21:57:53;8.90;84.69
75010;DHT22;63564;46.840;18.336;2022-09-21T22:00:53;8.94;84.28
75010;DHT22;63564;46.840;18.336;2022-09-21T22:03:56;8.92;85.00
75010;DHT22;63564;46.840;18.336;2022-09-21T22:06:57;8.87;84.80
75010;DHT22;63564;46.840;18.336;2022-09-21T22:09:57;8.89;85.44
75010;DHT22;63564;46.840;18.336;2022-09-21T22:12:57;8.77;86.54
75010;DHT22;63564;46.840;18.336;2022-09-21T22:16:17;8.71;85.87
75010;DHT22;63564;46.840;18.336;2022-09-21T22:19:18;8.58;86.34